sensor_id;sensor_type;location;lat;lon;timestamp;P1;durP1;ratioP1;P2;durP2;ratioP2
20629;SDS011;17386;43.846;25.950;2024-01-15T00:02:16;5.30;;;2.40;;
20629;SDS011;17386;43.846;25.950;2024-01-15T00:04:41;6.90;;;2.50;;
20629;SDS011;17386;43.846;25.950;2024-01-15T00:07:07;5.32;;;2.60;;
20629;SDS011;17386;43.846;25.950;2024-01-15T00:09:34;7.47;;;2.70;;
20629;SDS011;17386;43.846;25.950;2024-01-15T00:12:00;7.35;;;2.63;;
20629;SDS011;17386;43.846;25.950;2024-01-15T00:14:26;5.68;;;2.60;;
20629;SDS011;17386;43.846;25.950;2024-01-15T00:16:52;8.77;;;3.03;;
20629;SDS011;17386;43.846;25.950;2024-01-15T00:19:20;6.80;;;3.20;;
20629;SDS011;17386;43.846;25.950;2024-01-15T00:21:49;8.18;;;2.65;;
20629;SDS011;17386;43.846;25.950;2024-01-15T00:24:15;5.78;;;2.50;;
20629;SDS011;17386;43.846;25.950;2024-01-15T00:26:40;6.50;;;2.60;;
20629;SDS011;17386;43.846;25.950;2024-01-15T00:29:06;6.00;;;2.40;;
20629;SDS011;17386;43.846;25.950;2024-01-15T00:31:33;9.07;;;3.35;;
20629;SDS011;17386;43.846;25.950;2024-01-15T00:33:58;10.57;;;3.97;;
20629;SDS011;17386;43.846;25.950;2024-01-15T00:36:23;10.32;;;3.90;;
20629;SDS011;17386;43.846;25.950;2024-01-15T00:38:49;8.98;;;3.83;;
20629;SDS011;17386;43.846;25.950;2024-01-15T00:41:15;7.65;;;3.05;;
20629;SDS011;17386;43.846;25.950;2024-01-15T00:43:40;9.07;;;3.40;;
20629;SDS011;17386;43.846;25.950;2024-01-15T00:46:07;7.65;;;2.97;;
20629;SDS011;17386;43.846;25.950;2024-01-15T00:48:33;9.68;;;3.40;;
20629;SDS011;17386;43.846;25.950;2024-01-15T00:50:58;6.70;;;2.97;;
20629;SDS011;17386;43.846;25.950;2024-01-15T00:53:25;8.35;;;3.17;;
20629;SDS011;17386;43.846;25.950;2024-01-15T00:55:50;6.00;;;3.08;;
20629;SDS011;17386;43.846;25.950;2024-01-15T00:58:16;8.38;;;3.28;;
20629;SDS011;17386;43.846;25.950;2024-01-15T01:00:41;7.70;;;3.60;;
20629;SDS011;17386;43.846;25.950;2024-01-15T01:03:07;9.95;;;3.60;;
20629;SDS011;17386;43.846;25.950;2024-01-15T01:05:36;7.05;;;3.55;;
20629;SDS011;17386;43.846;25.950;2024-01-15T01:08:02;9.95;;;3.60;;
20629;SDS011;17386;43.846;25.950;2024-01-15T01:10:28;7.55;;;3.45;;
20629;SDS011;17386;43.846;25.950;2024-01-15T01:12:53;7.75;;;3.47;;
20629;SDS011;17386;43.846;25.950;2024-01-15T01:15:19;8.30;;;4.35;;
20629;SDS011;17386;43.846;25.950;2024-01-15T01:17:45;7.85;;;3.20;;
20629;SDS011;17386;43.846;25.950;2024-01-15T01:20:11;6.13;;;2.97;;
20629;SDS011;17386;43.846;25.950;2024-01-15T01:22:37;8.35;;;3.28;;
20629;SDS011;17386;43.846;25.950;2024-01-15T01:25:02;9.93;;;3.80;;
20629;SDS011;17386;43.846;25.950;2024-01-15T01:27:28;6.05;;;2.92;;
20629;SDS011;17386;43.846;25.950;2024-01-15T01:29:53;9.20;;;3.47;;
20629;SDS011;17386;43.846;25.950;2024-01-15T01:32:19;8.02;;;3.55;;
20629;SDS011;17386;43.846;25.950;2024-01-15T01:34:44;9.00;;;3.47;;
20629;SDS011;17386;43.846;25.950;2024-01-15T01:37:10;8.45;;;3.38;;
20629;SDS011;17386;43.846;25.950;2024-01-15T01:39:39;9.32;;;3.38;;
20629;SDS011;17386;43.846;25.950;2024-01-15T01:42:05;8.32;;;3.25;;
20629;SDS011;17386;43.846;25.950;2024-01-15T01:44:30;7.97;;;3.33;;
20629;SDS011;17386;43.846;25.950;2024-01-15T01:46:57;8.88;;;3.47;;
20629;SDS011;17386;43.846;25.950;2024-01-15T01:49:23;8.70;;;3.60;;
20629;SDS011;17386;43.846;25.950;2024-01-15T01:51:50;6.75;;;3.38;;
20629;SDS011;17386;43.846;25.950;2024-01-15T01:54:16;8.90;;;3.38;;
20629;SDS011;17386;43.846;25.950;2024-01-15T01:56:42;7.88;;;3.40;;
20629;SDS011;17386;43.846;25.950;2024-01-15T01:59:08;8.90;;;4.32;;
20629;SDS011;17386;43.846;25.950;2024-01-15T02:01:36;10.55;;;3.70;;
20629;SDS011;17386;43.846;25.950;2024-01-15T02:04:01;10.10;;;4.15;;
20629;SDS011;17386;43.846;25.950;2024-01-15T02:06:28;7.63;;;3.63;;
20629;SDS011;17386;43.846;25.950;2024-01-15T02:08:54;9.68;;;4.05;;
20629;SDS011;17386;43.846;25.950;2024-01-15T02:11:20;8.23;;;3.55;;
20629;SDS011;17386;43.846;25.950;2024-01-15T02:13:46;7.82;;;3.53;;
20629;SDS011;17386;43.846;25.950;2024-01-15T02:16:12;7.93;;;3.55;;
20629;SDS011;17386;43.846;25.950;2024-01-15T02:18:43;7.00;;;3.38;;
20629;SDS011;17386;43.846;25.950;2024-01-15T02:21:10;7.50;;;3.55;;
20629;SDS011;17386;43.846;25.950;2024-01-15T02:23:37;9.18;;;3.80;;
20629;SDS011;17386;43.846;25.950;2024-01-15T02:26:03;8.60;;;3.70;;
20629;SDS011;17386;43.846;25.950;2024-01-15T02:28:30;7.85;;;3.83;;
20629;SDS011;17386;43.846;25.950;2024-01-15T02:30:55;11.38;;;3.85;;
20629;SDS011;17386;43.846;25.950;2024-01-15T02:33:21;10.82;;;3.70;;
20629;SDS011;17386;43.846;25.950;2024-01-15T02:35:46;9.00;;;3.60;;
20629;SDS011;17386;43.846;25.950;2024-01-15T02:38:15;7.85;;;3.88;;
20629;SDS011;17386;43.846;25.950;2024-01-15T02:40:40;8.20;;;3.60;;
20629;SDS011;17386;43.846;25.950;2024-01-15T02:43:06;9.88;;;3.55;;
20629;SDS011;17386;43.846;25.950;2024-01-15T02:45:31;8.60;;;3.10;;
20629;SDS011;17386;43.846;25.950;2024-01-15T02:47:56;7.82;;;3.45;;
20629;SDS011;17386;43.846;25.950;2024-01-15T02:50:22;8.77;;;3.38;;
20629;SDS011;17386;43.846;25.950;2024-01-15T02:52:47;7.70;;;3.33;;
20629;SDS011;17386;43.846;25.950;2024-01-15T02:55:13;8.98;;;3.53;;
20629;SDS011;17386;43.846;25.950;2024-01-15T02:57:38;8.15;;;3.42;;
20629;SDS011;17386;43.846;25.950;2024-01-15T03:00:04;7.57;;;3.38;;
20629;SDS011;17386;43.846;25.950;2024-01-15T03:02:29;8.43;;;3.38;;
20629;SDS011;17386;43.846;25.950;2024-01-15T03:07:23;6.60;;;3.13;;
20629;SDS011;17386;43.846;25.950;2024-01-15T03:09:48;12.10;;;4.32;;
20629;SDS011;17386;43.846;25.950;2024-01-15T03:12:14;9.48;;;3.60;;
20629;SDS011;17386;43.846;25.950;2024-01-15T03:14:39;8.68;;;3.85;;
20629;SDS011;17386;43.846;25.950;2024-01-15T03:17:04;13.25;;;4.28;;
20629;SDS011;17386;43.846;25.950;2024-01-15T03:19:30;8.25;;;3.33;;
20629;SDS011;17386;43.846;25.950;2024-01-15T03:21:56;7.63;;;3.00;;
20629;SDS011;17386;43.846;25.950;2024-01-15T03:24:21;8.02;;;4.05;;
20629;SDS011;17386;43.846;25.950;2024-01-15T03:26:47;9.63;;;4.05;;
20629;SDS011;17386;43.846;25.950;2024-01-15T03:29:12;8.13;;;3.90;;
20629;SDS011;17386;43.846;25.950;2024-01-15T03:31:38;8.48;;;3.40;;
20629;SDS011;17386;43.846;25.950;2024-01-15T03:34:03;12.07;;;4.10;;
20629;SDS011;17386;43.846;25.950;2024-01-15T03:36:28;10.00;;;3.95;;
20629;SDS011;17386;43.846;25.950;2024-01-15T03:38:54;8.68;;;3.70;;
20629;SDS011;17386;43.846;25.950;2024-01-15T03:41:20;9.93;;;3.20;;
20629;SDS011;17386;43.846;25.950;2024-01-15T03:43:48;8.40;;;3.65;;
20629;SDS011;17386;43.846;25.950;2024-01-15T03:46:15;12.48;;;4.20;;
20629;SDS011;17386;43.846;25.950;2024-01-15T03:48:40;10.38;;;4.13;;
20629;SDS011;17386;43.846;25.950;2024-01-15T03:51:05;9.10;;;3.80;;
20629;SDS011;17386;43.846;25.950;2024-01-15T03:53:31;11.02;;;3.58;;
20629;SDS011;17386;43.846;25.950;2024-01-15T03:55:56;7.25;;;3.38;;
20629;SDS011;17386;43.846;25.950;2024-01-15T03:58:22;8.52;;;3.20;;
20629;SDS011;17386;43.846;25.950;2024-01-15T04:00:47;11.02;;;3.58;;
20629;SDS011;17386;43.846;25.950;2024-01-15T04:03:12;7.10;;;3.15;;
20629;SDS011;17386;43.846;25.950;2024-01-15T04:05:38;7.97;;;3.58;;
20629;SDS011;17386;43.846;25.950;2024-01-15T04:08:03;7.90;;;3.42;;
20629;SDS011;17386;43.846;25.950;2024-01-15T04:10:29;7.95;;;3.55;;
20629;SDS011;17386;43.846;25.950;2024-01-15T04:12:55;10.10;;;3.80;;
20629;SDS011;17386;43.846;25.950;2024-01-15T04:15:20;9.82;;;3.28;;
20629;SDS011;17386;43.846;25.950;2024-01-15T04:17:45;7.88;;;4.00;;
20629;SDS011;17386;43.846;25.950;2024-01-15T04:20:11;9.80;;;4.07;;
20629;SDS011;17386;43.846;25.950;2024-01-15T04:22:36;8.18;;;3.58;;
20629;SDS011;17386;43.846;25.950;2024-01-15T04:25:02;12.63;;;4.60;;
20629;SDS011;17386;43.846;25.950;2024-01-15T04:27:28;11.63;;;4.90;;
20629;SDS011;17386;43.846;25.950;2024-01-15T04:29:54;10.05;;;4.10;;
20629;SDS011;17386;43.846;25.950;2024-01-15T04:32:19;10.98;;;4.75;;
20629;SDS011;17386;43.846;25.950;2024-01-15T04:34:44;11.57;;;4.55;;
20629;SDS011;17386;43.846;25.950;2024-01-15T04:37:10;12.68;;;4.78;;
20629;SDS011;17386;43.846;25.950;2024-01-15T04:39:35;11.30;;;4.25;;
20629;SDS011;17386;43.846;25.950;2024-01-15T04:42:01;10.68;;;4.32;;
20629;SDS011;17386;43.846;25.950;2024-01-15T04:44:27;10.45;;;4.60;;
20629;SDS011;17386;43.846;25.950;2024-01-15T04:46:53;11.20;;;4.50;;
20629;SDS011;17386;43.846;25.950;2024-01-15T04:49:19;14.00;;;5.25;;
20629;SDS011;17386;43.846;25.950;2024-01-15T04:51:44;10.32;;;4.85;;
20629;SDS011;17386;43.846;25.950;2024-01-15T04:54:10;12.07;;;4.95;;
20629;SDS011;17386;43.846;25.950;2024-01-15T04:56:36;14.35;;;5.30;;
20629;SDS011;17386;43.846;25.950;2024-01-15T04:59:01;21.90;;;7.50;;
20629;SDS011;17386;43.846;25.950;2024-01-15T05:01:30;14.82;;;6.32;;
20629;SDS011;17386;43.846;25.950;2024-01-15T05:03:56;20.35;;;6.53;;
20629;SDS011;17386;43.846;25.950;2024-01-15T05:06:22;26.50;;;7.03;;
20629;SDS011;17386;43.846;25.950;2024-01-15T05:08:47;15.57;;;6.53;;
20629;SDS011;17386;43.846;25.950;2024-01-15T05:11:13;15.63;;;5.78;;
20629;SDS011;17386;43.846;25.950;2024-01-15T05:13:38;13.05;;;5.25;;
20629;SDS011;17386;43.846;25.950;2024-01-15T05:16:04;11.07;;;5.53;;
20629;SDS011;17386;43.846;25.950;2024-01-15T05:18:29;11.68;;;5.10;;
20629;SDS011;17386;43.846;25.950;2024-01-15T05:20:54;14.43;;;5.68;;
20629;SDS011;17386;43.846;25.950;2024-01-15T05:23:20;14.90;;;5.75;;
20629;SDS011;17386;43.846;25.950;2024-01-15T05:25:45;24.23;;;7.03;;
20629;SDS011;17386;43.846;25.950;2024-01-15T05:28:11;24.00;;;7.75;;
20629;SDS011;17386;43.846;25.950;2024-01-15T05:30:36;19.17;;;8.10;;
20629;SDS011;17386;43.846;25.950;2024-01-15T05:33:02;22.70;;;7.80;;
20629;SDS011;17386;43.846;25.950;2024-01-15T05:35:28;18.13;;;6.95;;
20629;SDS011;17386;43.846;25.950;2024-01-15T05:37:53;14.55;;;6.70;;
20629;SDS011;17386;43.846;25.950;2024-01-15T05:40:19;18.98;;;7.53;;
20629;SDS011;17386;43.846;25.950;2024-01-15T05:42:44;17.35;;;7.18;;
20629;SDS011;17386;43.846;25.950;2024-01-15T05:45:09;18.90;;;8.48;;
20629;SDS011;17386;43.846;25.950;2024-01-15T05:47:35;24.60;;;8.45;;
20629;SDS011;17386;43.846;25.950;2024-01-15T05:50:01;23.08;;;8.07;;
20629;SDS011;17386;43.846;25.950;2024-01-15T05:52:27;25.95;;;9.48;;
20629;SDS011;17386;43.846;25.950;2024-01-15T05:54:52;28.13;;;9.40;;
20629;SDS011;17386;43.846;25.950;2024-01-15T05:57:18;22.63;;;10.60;;
20629;SDS011;17386;43.846;25.950;2024-01-15T05:59:44;24.05;;;10.02;;
20629;SDS011;17386;43.846;25.950;2024-01-15T06:02:09;26.50;;;11.93;;
20629;SDS011;17386;43.846;25.950;2024-01-15T06:04:35;27.65;;;10.98;;
20629;SDS011;17386;43.846;25.950;2024-01-15T06:07:00;28.05;;;11.88;;
20629;SDS011;17386;43.846;25.950;2024-01-15T06:09:25;30.88;;;10.77;;
20629;SDS011;17386;43.846;25.950;2024-01-15T06:11:51;25.70;;;10.93;;
20629;SDS011;17386;43.846;25.950;2024-01-15T06:14:16;25.02;;;9.15;;
20629;SDS011;17386;43.846;25.950;2024-01-15T06:16:42;27.35;;;8.88;;
20629;SDS011;17386;43.846;25.950;2024-01-15T06:19:07;25.17;;;8.93;;
20629;SDS011;17386;43.846;25.950;2024-01-15T06:21:33;26.65;;;9.55;;
20629;SDS011;17386;43.846;25.950;2024-01-15T06:23:58;21.65;;;9.27;;
20629;SDS011;17386;43.846;25.950;2024-01-15T06:26:24;23.70;;;9.60;;
20629;SDS011;17386;43.846;25.950;2024-01-15T06:28:49;24.35;;;10.38;;
20629;SDS011;17386;43.846;25.950;2024-01-15T06:31:15;33.35;;;10.13;;
20629;SDS011;17386;43.846;25.950;2024-01-15T06:33:40;28.48;;;10.55;;
20629;SDS011;17386;43.846;25.950;2024-01-15T06:36:06;26.80;;;9.98;;
20629;SDS011;17386;43.846;25.950;2024-01-15T06:38:32;21.98;;;8.95;;
20629;SDS011;17386;43.846;25.950;2024-01-15T06:40:58;23.67;;;8.65;;
20629;SDS011;17386;43.846;25.950;2024-01-15T06:43:23;22.27;;;8.45;;
20629;SDS011;17386;43.846;25.950;2024-01-15T06:45:48;15.88;;;7.55;;
20629;SDS011;17386;43.846;25.950;2024-01-15T06:48:14;18.17;;;7.68;;
20629;SDS011;17386;43.846;25.950;2024-01-15T06:50:44;18.35;;;7.35;;
20629;SDS011;17386;43.846;25.950;2024-01-15T06:53:09;24.30;;;8.65;;
20629;SDS011;17386;43.846;25.950;2024-01-15T06:55:35;24.80;;;9.27;;
20629;SDS011;17386;43.846;25.950;2024-01-15T06:58:00;25.58;;;9.68;;
20629;SDS011;17386;43.846;25.950;2024-01-15T07:00:26;27.65;;;11.40;;
20629;SDS011;17386;43.846;25.950;2024-01-15T07:02:52;34.08;;;12.18;;
20629;SDS011;17386;43.846;25.950;2024-01-15T07:05:18;30.77;;;10.10;;
20629;SDS011;17386;43.846;25.950;2024-01-15T07:07:43;31.15;;;12.25;;
20629;SDS011;17386;43.846;25.950;2024-01-15T07:10:09;24.55;;;11.52;;
20629;SDS011;17386;43.846;25.950;2024-01-15T07:12:35;29.80;;;10.60;;
20629;SDS011;17386;43.846;25.950;2024-01-15T07:15:07;26.58;;;10.93;;
20629;SDS011;17386;43.846;25.950;2024-01-15T07:17:33;30.75;;;12.13;;
20629;SDS011;17386;43.846;25.950;2024-01-15T07:19:59;29.48;;;12.55;;
20629;SDS011;17386;43.846;25.950;2024-01-15T07:22:24;32.30;;;16.80;;
20629;SDS011;17386;43.846;25.950;2024-01-15T07:24:50;37.13;;;16.20;;
20629;SDS011;17386;43.846;25.950;2024-01-15T07:27:15;33.72;;;15.70;;
20629;SDS011;17386;43.846;25.950;2024-01-15T07:29:41;33.10;;;14.90;;
20629;SDS011;17386;43.846;25.950;2024-01-15T07:32:07;37.00;;;16.02;;
20629;SDS011;17386;43.846;25.950;2024-01-15T07:34:33;46.08;;;17.27;;
20629;SDS011;17386;43.846;25.950;2024-01-15T07:36:58;48.63;;;18.10;;
20629;SDS011;17386;43.846;25.950;2024-01-15T07:39:24;46.22;;;18.95;;
20629;SDS011;17386;43.846;25.950;2024-01-15T07:41:53;43.80;;;16.40;;
20629;SDS011;17386;43.846;25.950;2024-01-15T07:44:18;36.58;;;15.90;;
20629;SDS011;17386;43.846;25.950;2024-01-15T07:46:44;38.22;;;16.42;;
20629;SDS011;17386;43.846;25.950;2024-01-15T07:49:10;55.20;;;16.85;;
20629;SDS011;17386;43.846;25.950;2024-01-15T07:51:36;38.58;;;15.43;;
20629;SDS011;17386;43.846;25.950;2024-01-15T07:54:02;38.45;;;17.15;;
20629;SDS011;17386;43.846;25.950;2024-01-15T07:56:28;38.42;;;20.70;;
20629;SDS011;17386;43.846;25.950;2024-01-15T07:58:53;45.00;;;18.42;;
20629;SDS011;17386;43.846;25.950;2024-01-15T08:01:19;35.90;;;15.73;;
20629;SDS011;17386;43.846;25.950;2024-01-15T08:03:44;43.92;;;17.17;;
20629;SDS011;17386;43.846;25.950;2024-01-15T08:06:10;46.10;;;17.98;;
20629;SDS011;17386;43.846;25.950;2024-01-15T08:08:36;43.40;;;17.05;;
20629;SDS011;17386;43.846;25.950;2024-01-15T08:11:02;42.15;;;16.42;;
20629;SDS011;17386;43.846;25.950;2024-01-15T08:13:27;39.85;;;14.82;;
20629;SDS011;17386;43.846;25.950;2024-01-15T08:15:53;29.45;;;13.90;;
20629;SDS011;17386;43.846;25.950;2024-01-15T08:18:18;31.25;;;13.30;;
20629;SDS011;17386;43.846;25.950;2024-01-15T08:20:45;28.65;;;13.82;;
20629;SDS011;17386;43.846;25.950;2024-01-15T08:23:11;33.00;;;14.40;;
20629;SDS011;17386;43.846;25.950;2024-01-15T08:25:36;34.53;;;14.50;;
20629;SDS011;17386;43.846;25.950;2024-01-15T08:28:02;37.10;;;13.68;;
20629;SDS011;17386;43.846;25.950;2024-01-15T08:30:27;31.13;;;13.02;;
20629;SDS011;17386;43.846;25.950;2024-01-15T08:32:53;34.60;;;15.02;;
20629;SDS011;17386;43.846;25.950;2024-01-15T08:35:19;42.30;;;14.45;;
20629;SDS011;17386;43.846;25.950;2024-01-15T08:37:48;31.08;;;10.68;;
20629;SDS011;17386;43.846;25.950;2024-01-15T08:40:14;18.42;;;8.27;;
20629;SDS011;17386;43.846;25.950;2024-01-15T08:42:40;24.65;;;9.27;;
20629;SDS011;17386;43.846;25.950;2024-01-15T08:45:06;23.38;;;9.35;;
20629;SDS011;17386;43.846;25.950;2024-01-15T08:47:32;25.98;;;11.57;;
20629;SDS011;17386;43.846;25.950;2024-01-15T08:49:57;26.40;;;12.02;;
20629;SDS011;17386;43.846;25.950;2024-01-15T08:52:24;29.58;;;11.90;;
20629;SDS011;17386;43.846;25.950;2024-01-15T08:54:52;28.58;;;11.02;;
20629;SDS011;17386;43.846;25.950;2024-01-15T08:57:17;22.65;;;9.63;;
20629;SDS011;17386;43.846;25.950;2024-01-15T08:59:42;21.55;;;8.13;;
20629;SDS011;17386;43.846;25.950;2024-01-15T09:02:08;12.25;;;5.70;;
20629;SDS011;17386;43.846;25.950;2024-01-15T09:04:33;9.02;;;4.47;;
20629;SDS011;17386;43.846;25.950;2024-01-15T09:06:59;7.60;;;3.97;;
20629;SDS011;17386;43.846;25.950;2024-01-15T09:09:24;8.85;;;3.72;;
20629;SDS011;17386;43.846;25.950;2024-01-15T09:11:50;7.38;;;3.60;;
20629;SDS011;17386;43.846;25.950;2024-01-15T09:14:16;8.73;;;3.20;;
20629;SDS011;17386;43.846;25.950;2024-01-15T09:16:42;7.18;;;2.97;;
20629;SDS011;17386;43.846;25.950;2024-01-15T09:19:08;6.32;;;3.33;;
20629;SDS011;17386;43.846;25.950;2024-01-15T09:21:33;8.10;;;4.13;;
20629;SDS011;17386;43.846;25.950;2024-01-15T09:23:59;5.80;;;3.00;;
20629;SDS011;17386;43.846;25.950;2024-01-15T09:26:24;8.07;;;3.20;;
20629;SDS011;17386;43.846;25.950;2024-01-15T09:28:50;6.57;;;3.17;;
20629;SDS011;17386;43.846;25.950;2024-01-15T09:31:15;6.75;;;3.28;;
20629;SDS011;17386;43.846;25.950;2024-01-15T09:33:42;7.07;;;3.33;;
20629;SDS011;17386;43.846;25.950;2024-01-15T09:36:08;12.82;;;4.22;;
20629;SDS011;17386;43.846;25.950;2024-01-15T09:38:33;14.00;;;4.00;;
20629;SDS011;17386;43.846;25.950;2024-01-15T09:40:59;9.45;;;3.63;;
20629;SDS011;17386;43.846;25.950;2024-01-15T09:43:25;8.75;;;4.28;;
20629;SDS011;17386;43.846;25.950;2024-01-15T09:45:51;9.35;;;3.55;;
20629;SDS011;17386;43.846;25.950;2024-01-15T09:48:18;11.55;;;4.28;;
20629;SDS011;17386;43.846;25.950;2024-01-15T09:50:43;9.57;;;3.92;;
20629;SDS011;17386;43.846;25.950;2024-01-15T09:53:09;9.90;;;3.30;;
20629;SDS011;17386;43.846;25.950;2024-01-15T09:55:38;7.03;;;3.22;;
20629;SDS011;17386;43.846;25.950;2024-01-15T09:58:03;7.07;;;3.30;;
20629;SDS011;17386;43.846;25.950;2024-01-15T10:00:29;9.07;;;4.10;;
20629;SDS011;17386;43.846;25.950;2024-01-15T10:02:56;7.32;;;3.45;;
20629;SDS011;17386;43.846;25.950;2024-01-15T10:08:34;6.55;;;3.00;;
20629;SDS011;17386;43.846;25.950;2024-01-15T10:11:01;10.45;;;3.72;;
20629;SDS011;17386;43.846;25.950;2024-01-15T10:13:29;12.52;;;3.95;;
20629;SDS011;17386;43.846;25.950;2024-01-15T10:15:55;7.05;;;3.17;;
20629;SDS011;17386;43.846;25.950;2024-01-15T10:18:21;8.15;;;3.58;;
20629;SDS011;17386;43.846;25.950;2024-01-15T10:20:46;7.70;;;4.10;;
20629;SDS011;17386;43.846;25.950;2024-01-15T10:23:13;10.07;;;3.80;;
20629;SDS011;17386;43.846;25.950;2024-01-15T10:25:44;10.70;;;4.10;;
20629;SDS011;17386;43.846;25.950;2024-01-15T10:28:09;8.25;;;3.50;;
20629;SDS011;17386;43.846;25.950;2024-01-15T10:30:35;8.57;;;3.30;;
20629;SDS011;17386;43.846;25.950;2024-01-15T10:33:03;7.00;;;3.03;;
20629;SDS011;17386;43.846;25.950;2024-01-15T10:35:30;10.77;;;3.97;;
20629;SDS011;17386;43.846;25.950;2024-01-15T10:38:02;10.35;;;4.28;;
20629;SDS011;17386;43.846;25.950;2024-01-15T10:40:29;8.85;;;3.97;;
20629;SDS011;17386;43.846;25.950;2024-01-15T10:42:54;8.20;;;3.92;;
20629;SDS011;17386;43.846;25.950;2024-01-15T10:45:20;5.15;;;3.03;;
20629;SDS011;17386;43.846;25.950;2024-01-15T10:47:46;7.18;;;2.70;;
20629;SDS011;17386;43.846;25.950;2024-01-15T10:50:12;5.22;;;2.75;;
20629;SDS011;17386;43.846;25.950;2024-01-15T10:52:38;9.55;;;3.40;;
20629;SDS011;17386;43.846;25.950;2024-01-15T10:55:08;6.22;;;3.00;;
20629;SDS011;17386;43.846;25.950;2024-01-15T10:57:34;4.57;;;2.40;;
20629;SDS011;17386;43.846;25.950;2024-01-15T11:00:04;3.88;;;2.53;;
20629;SDS011;17386;43.846;25.950;2024-01-15T11:02:34;5.93;;;2.38;;
20629;SDS011;17386;43.846;25.950;2024-01-15T11:05:01;4.22;;;2.33;;
20629;SDS011;17386;43.846;25.950;2024-01-15T11:07:26;5.05;;;2.42;;
20629;SDS011;17386;43.846;25.950;2024-01-15T11:09:52;4.82;;;2.60;;
20629;SDS011;17386;43.846;25.950;2024-01-15T11:12:18;4.80;;;2.38;;
20629;SDS011;17386;43.846;25.950;2024-01-15T11:14:50;7.45;;;2.90;;
20629;SDS011;17386;43.846;25.950;2024-01-15T11:17:16;6.88;;;2.90;;
20629;SDS011;17386;43.846;25.950;2024-01-15T11:19:47;10.65;;;3.80;;
20629;SDS011;17386;43.846;25.950;2024-01-15T11:25:17;5.25;;;2.50;;
20629;SDS011;17386;43.846;25.950;2024-01-15T11:27:44;8.00;;;3.00;;
20629;SDS011;17386;43.846;25.950;2024-01-15T11:30:17;6.70;;;2.83;;
20629;SDS011;17386;43.846;25.950;2024-01-15T11:32:45;5.90;;;2.90;;
20629;SDS011;17386;43.846;25.950;2024-01-15T11:35:12;7.47;;;2.90;;
20629;SDS011;17386;43.846;25.950;2024-01-15T11:40:19;6.90;;;2.92;;
20629;SDS011;17386;43.846;25.950;2024-01-15T11:42:46;8.43;;;3.88;;
20629;SDS011;17386;43.846;25.950;2024-01-15T11:45:13;7.20;;;3.40;;
20629;SDS011;17386;43.846;25.950;2024-01-15T11:52:59;6.57;;;2.70;;
20629;SDS011;17386;43.846;25.950;2024-01-15T11:55:27;7.10;;;3.05;;
20629;SDS011;17386;43.846;25.950;2024-01-15T11:57:58;6.68;;;3.17;;
20629;SDS011;17386;43.846;25.950;2024-01-15T12:00:26;6.85;;;2.72;;
20629;SDS011;17386;43.846;25.950;2024-01-15T12:02:51;7.20;;;3.03;;
20629;SDS011;17386;43.846;25.950;2024-01-15T12:05:18;6.70;;;3.17;;
20629;SDS011;17386;43.846;25.950;2024-01-15T12:07:46;5.57;;;2.85;;
20629;SDS011;17386;43.846;25.950;2024-01-15T12:10:22;5.93;;;3.10;;
20629;SDS011;17386;43.846;25.950;2024-01-15T12:15:30;7.40;;;3.08;;
20629;SDS011;17386;43.846;25.950;2024-01-15T12:17:57;7.80;;;3.00;;
20629;SDS011;17386;43.846;25.950;2024-01-15T12:20:25;7.55;;;3.50;;
20629;SDS011;17386;43.846;25.950;2024-01-15T12:22:51;5.80;;;2.80;;
20629;SDS011;17386;43.846;25.950;2024-01-15T12:25:17;7.13;;;3.22;;
20629;SDS011;17386;43.846;25.950;2024-01-15T12:27:42;7.30;;;3.60;;
20629;SDS011;17386;43.846;25.950;2024-01-15T12:30:12;6.30;;;2.88;;
20629;SDS011;17386;43.846;25.950;2024-01-15T12:32:39;5.15;;;2.47;;
20629;SDS011;17386;43.846;25.950;2024-01-15T12:37:31;5.72;;;2.70;;
20629;SDS011;17386;43.846;25.950;2024-01-15T12:39:58;6.70;;;2.90;;
20629;SDS011;17386;43.846;25.950;2024-01-15T12:42:24;7.18;;;3.13;;
20629;SDS011;17386;43.846;25.950;2024-01-15T12:44:50;6.30;;;3.25;;
20629;SDS011;17386;43.846;25.950;2024-01-15T12:47:15;11.02;;;3.53;;
20629;SDS011;17386;43.846;25.950;2024-01-15T12:49:46;10.88;;;3.65;;
20629;SDS011;17386;43.846;25.950;2024-01-15T12:52:13;6.65;;;3.38;;
20629;SDS011;17386;43.846;25.950;2024-01-15T12:54:38;6.65;;;3.05;;
20629;SDS011;17386;43.846;25.950;2024-01-15T12:57:03;4.63;;;2.67;;
20629;SDS011;17386;43.846;25.950;2024-01-15T12:59:29;10.25;;;3.40;;
20629;SDS011;17386;43.846;25.950;2024-01-15T13:01:54;9.43;;;3.40;;
20629;SDS011;17386;43.846;25.950;2024-01-15T13:04:23;9.40;;;4.20;;
20629;SDS011;17386;43.846;25.950;2024-01-15T13:06:52;7.38;;;3.20;;
20629;SDS011;17386;43.846;25.950;2024-01-15T13:09:18;11.75;;;3.40;;
20629;SDS011;17386;43.846;25.950;2024-01-15T13:11:44;7.07;;;3.20;;
20629;SDS011;17386;43.846;25.950;2024-01-15T13:14:10;7.32;;;3.20;;
20629;SDS011;17386;43.846;25.950;2024-01-15T13:16:36;7.47;;;3.10;;
20629;SDS011;17386;43.846;25.950;2024-01-15T13:19:01;7.45;;;3.22;;
20629;SDS011;17386;43.846;25.950;2024-01-15T13:21:29;9.20;;;3.50;;
20629;SDS011;17386;43.846;25.950;2024-01-15T13:23:55;8.40;;;3.42;;
20629;SDS011;17386;43.846;25.950;2024-01-15T13:26:20;8.75;;;3.35;;
20629;SDS011;17386;43.846;25.950;2024-01-15T13:28:46;8.65;;;3.22;;
20629;SDS011;17386;43.846;25.950;2024-01-15T13:31:11;8.15;;;3.03;;
20629;SDS011;17386;43.846;25.950;2024-01-15T13:33:38;8.85;;;3.33;;
20629;SDS011;17386;43.846;25.950;2024-01-15T13:36:03;8.43;;;3.80;;
20629;SDS011;17386;43.846;25.950;2024-01-15T13:38:33;10.60;;;4.20;;
20629;SDS011;17386;43.846;25.950;2024-01-15T13:41:02;11.73;;;4.38;;
20629;SDS011;17386;43.846;25.950;2024-01-15T13:43:27;12.48;;;5.03;;
20629;SDS011;17386;43.846;25.950;2024-01-15T13:45:53;11.45;;;4.90;;
20629;SDS011;17386;43.846;25.950;2024-01-15T13:48:19;10.55;;;5.07;;
20629;SDS011;17386;43.846;25.950;2024-01-15T13:50:45;12.32;;;4.95;;
20629;SDS011;17386;43.846;25.950;2024-01-15T13:53:11;8.38;;;4.35;;
20629;SDS011;17386;43.846;25.950;2024-01-15T13:55:36;11.95;;;4.78;;
20629;SDS011;17386;43.846;25.950;2024-01-15T13:58:02;9.77;;;4.10;;
20629;SDS011;17386;43.846;25.950;2024-01-15T14:00:30;9.75;;;4.55;;
20629;SDS011;17386;43.846;25.950;2024-01-15T14:02:56;11.90;;;3.65;;
20629;SDS011;17386;43.846;25.950;2024-01-15T14:05:22;8.63;;;3.97;;
20629;SDS011;17386;43.846;25.950;2024-01-15T14:07:48;8.27;;;3.67;;
20629;SDS011;17386;43.846;25.950;2024-01-15T14:10:14;8.30;;;4.28;;
20629;SDS011;17386;43.846;25.950;2024-01-15T14:12:39;8.40;;;3.97;;
20629;SDS011;17386;43.846;25.950;2024-01-15T14:15:05;11.45;;;4.90;;
20629;SDS011;17386;43.846;25.950;2024-01-15T14:17:31;8.27;;;4.20;;
20629;SDS011;17386;43.846;25.950;2024-01-15T14:19:57;8.90;;;4.13;;
20629;SDS011;17386;43.846;25.950;2024-01-15T14:22:22;12.45;;;4.85;;
20629;SDS011;17386;43.846;25.950;2024-01-15T14:24:48;8.13;;;4.63;;
20629;SDS011;17386;43.846;25.950;2024-01-15T14:27:13;13.18;;;4.50;;
20629;SDS011;17386;43.846;25.950;2024-01-15T14:29:39;9.40;;;4.90;;
20629;SDS011;17386;43.846;25.950;2024-01-15T14:32:04;10.38;;;5.15;;
20629;SDS011;17386;43.846;25.950;2024-01-15T14:34:30;10.95;;;5.05;;
20629;SDS011;17386;43.846;25.950;2024-01-15T14:36:56;18.17;;;5.85;;
20629;SDS011;17386;43.846;25.950;2024-01-15T14:39:21;13.88;;;6.78;;
20629;SDS011;17386;43.846;25.950;2024-01-15T14:41:47;9.60;;;3.70;;